createdAt,value
2022-07-27T00:01:34.916Z,101661.63
2022-07-27T00:06:37.787Z,101660.75
2022-07-27T00:11:40.536Z,101654.06
2022-07-27T00:16:44.601Z,101651.59
2022-07-27T00:21:47.317Z,101659.75
2022-07-27T00:26:49.944Z,101657.91
2022-07-27T00:31:54.046Z,101650.84
2022-07-27T00:36:56.845Z,101630.22
2022-07-27T00:41:59.661Z,101653.56
2022-07-27T00:47:04.257Z,101659.81
2022-07-27T00:52:08.531Z,101663.19
2022-07-27T00:57:12.002Z,101629.03
2022-07-27T01:02:19.896Z,101660.41
2022-07-27T01:07:27.350Z,101658.97
2022-07-27T01:12:32.730Z,101657.34
2022-07-27T01:17:37.355Z,101596.94
2022-07-27T01:22:41.389Z,101644.63
2022-07-27T01:27:44.323Z,101652.75
2022-07-27T01:32:47.017Z,101650.94
2022-07-27T01:37:51.057Z,101646.19
2022-07-27T01:42:53.899Z,101564.22
2022-07-27T01:47:56.852Z,101650.50
2022-07-27T01:53:00.863Z,101647.34
2022-07-27T01:58:07.108Z,101643.19
2022-07-27T02:03:11.050Z,101643.44
2022-07-27T02:08:15.264Z,101642.28
2022-07-27T02:13:22.711Z,101634.31
2022-07-27T02:18:32.820Z,101645.13
2022-07-27T02:23:38.964Z,101613.31
2022-07-27T02:28:41.648Z,101558.34
2022-07-27T02:33:44.329Z,101637.06
2022-07-27T02:38:48.486Z,101635.47
2022-07-27T02:43:51.313Z,101634.00
2022-07-27T02:48:54.062Z,101637.56
2022-07-27T02:53:58.166Z,101621.22
2022-07-27T02:59:02.044Z,101631.09
2022-07-27T03:04:04.944Z,101627.72
2022-07-27T03:09:10.244Z,101623.25
2022-07-27T03:14:13.152Z,101611.97
2022-07-27T03:19:18.093Z,101634.31
2022-07-27T03:24:22.224Z,101606.88
2022-07-27T03:29:24.880Z,101636.59
2022-07-27T03:34:32.586Z,101636.59
2022-07-27T03:39:36.633Z,101633.22
2022-07-27T03:44:39.360Z,101641.41
2022-07-27T03:49:42.241Z,101643.16
2022-07-27T03:54:46.274Z,101643.41
2022-07-27T03:59:48.962Z,101622.28
2022-07-27T04:04:51.744Z,101621.63
2022-07-27T04:09:55.721Z,101657.94
2022-07-27T04:14:58.400Z,101658.44
2022-07-27T04:20:01.437Z,101604.34
2022-07-27T04:25:06.349Z,101677.66
2022-07-27T04:30:10.828Z,101665.22
2022-07-27T04:35:13.496Z,101670.94
2022-07-27T04:40:17.886Z,101673.69
2022-07-27T04:45:20.720Z,101645.72
2022-07-27T04:50:23.709Z,101688.41
2022-07-27T04:55:27.838Z,101685.53
2022-07-27T05:00:30.724Z,101652.53
2022-07-27T05:05:33.643Z,101682.06
2022-07-27T05:10:38.050Z,101698.78
2022-07-27T05:15:53.896Z,101632.44
2022-07-27T05:20:58.540Z,101667.16
2022-07-27T05:26:03.347Z,101696.66
2022-07-27T05:31:06.284Z,101704.03
2022-07-27T05:36:09.262Z,101677.97
2022-07-27T05:41:13.354Z,101703.50
2022-07-27T05:46:16.439Z,101713.84
2022-07-27T05:51:19.216Z,101645.56
2022-07-27T05:56:23.403Z,101716.50
2022-07-27T06:01:26.182Z,101729.56
2022-07-27T06:06:46.622Z,101714.84
2022-07-27T06:11:50.675Z,101718.91
2022-07-27T06:16:53.413Z,101723.91
2022-07-27T06:21:56.990Z,101730.47
2022-07-27T06:27:01.485Z,101723.31
2022-07-27T06:32:04.387Z,101686.31
2022-07-27T06:37:07.786Z,101692.63
2022-07-27T06:42:13.930Z,101706.28
2022-07-27T06:47:17.066Z,101721.72
2022-07-27T06:52:19.966Z,101730.81
2022-07-27T06:57:24.617Z,101727.91
2022-07-27T07:02:27.532Z,101714.75
2022-07-27T07:07:30.206Z,101735.47
2022-07-27T07:12:34.639Z,101721.72
2022-07-27T07:17:37.823Z,101713.19
2022-07-27T07:22:40.830Z,101747.38
2022-07-27T07:27:45.095Z,101745.88
2022-07-27T07:32:48.203Z,101739.19
2022-07-27T07:37:50.975Z,101751.47
2022-07-27T07:42:56.870Z,101707.22
2022-07-27T07:48:00.876Z,101718.16
2022-07-27T07:53:05.214Z,101748.59
2022-07-27T07:58:09.490Z,101754.41
2022-07-27T08:03:12.816Z,101713.91
2022-07-27T08:08:17.088Z,101761.97
2022-07-27T08:13:22.587Z,101756.38
2022-07-27T08:18:27.471Z,101773.69
2022-07-27T08:23:31.708Z,101652.81
2022-07-27T08:28:38.401Z,101772.28
2022-07-27T08:33:41.286Z,101741.81
2022-07-27T08:38:43.980Z,101753.28
2022-07-27T08:43:49.921Z,101691.69
2022-07-27T08:48:53.664Z,101780.44
2022-07-27T08:53:57.172Z,101785.38
2022-07-27T08:59:01.184Z,101775.44
2022-07-27T09:04:04.337Z,101751.63
2022-07-27T09:09:07.295Z,101777.16
2022-07-27T09:14:14.259Z,101779.91
2022-07-27T09:19:17.002Z,101777.50
2022-07-27T09:24:46.963Z,101786.03
2022-07-27T09:29:46.701Z,101761.16
2022-07-27T09:34:51.694Z,101768.81
2022-07-27T09:40:13.466Z,101771.97
2022-07-27T09:45:34.500Z,101768.09
2022-07-27T09:50:53.073Z,101772.38
2022-07-27T09:56:06.871Z,101778.16
2022-07-27T10:01:13.230Z,101755.22
2022-07-27T10:06:16.864Z,101761.88
2022-07-27T10:11:21.688Z,101742.66
2022-07-27T10:16:28.912Z,101705.69
2022-07-27T10:21:32.776Z,101780.19
2022-07-27T10:26:37.536Z,101781.03
2022-07-27T10:31:43.280Z,101768.72
2022-07-27T10:36:53.368Z,101772.00
2022-07-27T10:42:19.140Z,101767.72
2022-07-27T10:47:35.409Z,101723.25
2022-07-27T10:52:43.139Z,101749.63
2022-07-27T10:57:46.109Z,101740.97
2022-07-27T11:02:50.158Z,101777.03
2022-07-27T11:08:34.502Z,101781.84
2022-07-27T11:13:20.568Z,101766.41
2022-07-27T11:18:28.327Z,101635.63
2022-07-27T11:28:54.777Z,101746.09
2022-07-27T11:34:02.683Z,101723.97
2022-07-27T11:39:07.524Z,101723.06
2022-07-27T11:44:11.662Z,101736.75
2022-07-27T11:49:26.853Z,101674.34
2022-07-27T11:54:35.225Z,101674.25
2022-07-27T11:59:39.175Z,101710.25
2022-07-27T12:04:45.626Z,101717.13
2022-07-27T12:09:51.220Z,101718.91
2022-07-27T12:14:56.595Z,101699.69
2022-07-27T12:20:03.252Z,101702.06
2022-07-27T12:25:16.060Z,101716.28
2022-07-27T12:30:20.026Z,101666.31
2022-07-27T12:35:31.547Z,101704.88
2022-07-27T12:40:44.957Z,101671.94
2022-07-27T12:45:49.331Z,101687.06
2022-07-27T12:51:01.572Z,101693.28
2022-07-27T12:56:10.386Z,101690.69
2022-07-27T13:01:13.123Z,101663.94
2022-07-27T13:06:19.005Z,101658.38
2022-07-27T13:11:21.710Z,101678.97
2022-07-27T13:16:24.518Z,101691.47
2022-07-27T13:21:28.732Z,101660.75
2022-07-27T13:26:32.777Z,101689.84
2022-07-27T13:31:37.275Z,101690.50
2022-07-27T13:36:41.689Z,101683.88
2022-07-27T13:41:44.362Z,101689.31
2022-07-27T13:46:48.366Z,101689.94
2022-07-27T13:51:52.402Z,101669.09
2022-07-27T13:56:55.159Z,101648.00
2022-07-27T14:01:58.046Z,101682.25
2022-07-27T14:07:02.434Z,101688.00
2022-07-27T14:12:06.069Z,101670.97
2022-07-27T14:17:08.947Z,101665.31
2022-07-27T14:22:13.050Z,101648.19
2022-07-27T14:27:16.343Z,101656.66
2022-07-27T14:32:18.931Z,101653.72
2022-07-27T14:37:22.951Z,101584.75
2022-07-27T14:42:26.019Z,101653.50
2022-07-27T14:47:28.781Z,101646.56
2022-07-27T14:52:32.838Z,101645.78
2022-07-27T14:57:35.752Z,101645.16
2022-07-27T15:02:38.828Z,101643.94
2022-07-27T15:07:42.946Z,101647.22
2022-07-27T15:12:49.063Z,101534.66
2022-07-27T15:17:51.831Z,101622.69
2022-07-27T15:22:56.144Z,101591.00
2022-07-27T15:27:59.104Z,101593.75
2022-07-27T15:33:01.885Z,101611.09
2022-07-27T15:38:06.246Z,101599.91
2022-07-27T15:43:11.718Z,101602.44
2022-07-27T15:48:15.947Z,101604.91
2022-07-27T15:53:22.316Z,101488.44
2022-07-27T15:58:25.498Z,101582.16
2022-07-27T16:03:28.550Z,101501.16
2022-07-27T16:08:34.548Z,101587.75
2022-07-27T16:13:37.609Z,101541.47
2022-07-27T16:18:40.441Z,101540.47
2022-07-27T16:23:44.538Z,101585.13
2022-07-27T16:28:49.312Z,101575.19
2022-07-27T16:33:55.134Z,101587.16
2022-07-27T16:39:00.053Z,101564.91
2022-07-27T16:44:02.837Z,101553.56
2022-07-27T16:49:05.596Z,101540.13
2022-07-27T16:54:10.165Z,101538.28
2022-07-27T16:59:13.285Z,101583.72
2022-07-27T17:04:16.280Z,101578.66
2022-07-27T17:09:20.468Z,101569.94
2022-07-27T17:14:23.387Z,101574.91
2022-07-27T17:19:26.306Z,101539.28
2022-07-27T17:24:33.833Z,101579.31
2022-07-27T17:29:40.362Z,101578.66
2022-07-27T17:34:45.248Z,101523.34
2022-07-27T17:39:49.260Z,101468.84
2022-07-27T17:44:52.052Z,101524.13
2022-07-27T17:49:54.925Z,101509.88
2022-07-27T17:55:03.240Z,101120.66
2022-07-27T18:00:06.727Z,101571.47
2022-07-27T18:05:12.751Z,101574.59
2022-07-27T18:10:18.434Z,101553.94
2022-07-27T18:15:38.806Z,101574.16
2022-07-27T18:20:41.619Z,101559.31
2022-07-27T18:25:47.235Z,101505.63
2022-07-27T18:30:52.234Z,101558.47
2022-07-27T18:35:56.166Z,101501.84
2022-07-27T18:41:03.055Z,101580.59
2022-07-27T18:46:06.658Z,101592.00
2022-07-27T18:51:09.834Z,101341.75
2022-07-27T18:56:18.279Z,101591.19
2022-07-27T19:01:21.376Z,101584.97
2022-07-27T19:06:25.888Z,101592.06
2022-07-27T19:11:32.271Z,101587.41
2022-07-27T19:16:36.380Z,101592.38
2022-07-27T19:21:39.886Z,101585.44
2022-07-27T19:26:45.671Z,101573.69
2022-07-27T19:31:49.039Z,101594.50
2022-07-27T19:36:52.267Z,101592.50
2022-07-27T19:41:56.352Z,101617.41
2022-07-27T19:46:59.137Z,101608.34
2022-07-27T19:52:02.931Z,101587.63
2022-07-27T19:57:07.379Z,101613.66
2022-07-27T20:02:10.254Z,101544.31
2022-07-27T20:07:13.010Z,101575.75
2022-07-27T20:12:17.221Z,101633.78
2022-07-27T20:17:20.145Z,101637.19
2022-07-27T20:22:22.947Z,101639.44
2022-07-27T20:27:27.106Z,101630.34
2022-07-27T20:32:38.953Z,101648.19
2022-07-27T20:37:42.321Z,101645.91
2022-07-27T20:42:46.906Z,101591.81
2022-07-27T20:47:49.687Z,101638.50
2022-07-27T20:52:52.357Z,101649.31
2022-07-27T20:57:57.606Z,101624.03
2022-07-27T21:03:00.476Z,101594.31
2022-07-27T21:08:03.268Z,101660.25
2022-07-27T21:13:07.621Z,101662.78
2022-07-27T21:18:10.434Z,101666.22
2022-07-27T21:23:30.952Z,101635.75
2022-07-27T21:28:38.420Z,101655.41
2022-07-27T21:33:44.072Z,101564.16
2022-07-27T21:38:46.727Z,101681.06
2022-07-27T21:43:51.363Z,101626.28
2022-07-27T21:48:54.087Z,101681.16
2022-07-27T21:53:57.251Z,101682.53
2022-07-27T21:59:01.256Z,101681.09
2022-07-27T22:04:04.050Z,101675.06
2022-07-27T22:09:06.875Z,101671.69
2022-07-27T22:14:11.213Z,101653.88
2022-07-27T22:19:14.996Z,101674.94
2022-07-27T22:24:17.898Z,101676.28
2022-07-27T22:29:22.122Z,101683.66
2022-07-27T22:34:24.837Z,101676.59
2022-07-27T22:39:27.693Z,101684.03
2022-07-27T22:44:31.710Z,101689.28
2022-07-27T22:49:35.644Z,101687.09
2022-07-27T22:54:39.261Z,101692.91
2022-07-27T22:59:43.573Z,101702.47
2022-07-27T23:04:46.868Z,101691.03
2022-07-27T23:09:49.633Z,101693.78
2022-07-27T23:14:53.860Z,101684.59
2022-07-27T23:19:57.099Z,101690.34
2022-07-27T23:25:03.590Z,101686.41
2022-07-27T23:30:16.061Z,101669.78
2022-07-27T23:35:21.876Z,101625.03
2022-07-27T23:40:25.085Z,101669.06
2022-07-27T23:45:29.544Z,101688.84
2022-07-27T23:50:40.209Z,101679.66
2022-07-27T23:55:43.113Z,101677.25
